Terminal Aerodrome Forecast
Issued by NWS

Home | Current Version | Previous Version | Graphics & Text | Print | Product List | Glossary On
Versions: 1 2 3 4 5 6 7 8 9 10 11 12
411
FTUS43 KOAX 211720
TAFCDR
TAF
KCDR 211720Z 2118/2218 34010G20KT P6SM SCT090
     FM220000 03008KT P6SM SCT090
     FM221300 34012G20KT P6SM SCT090=

USA.gov is the U.S. government's official web portal to all federal, state and local government web resources and services.